Colemans, Ontario

10:08 AM EDT on April 28, 2017 (GMT -0400)
NOTL Rural | | Change Station

Elev 279 ft 43.24 °N, 79.12 °W | Updated 3 minutes ago

Mostly Cloudy
Mostly Cloudy
57.9 °F
Feels Like 57.9 °F
N
6.3
Wind Variable Wind from South

Today
High -- | Low -- °F
--% Chance of Precip.
Yesterday
High -- | Low -- °F
Precip. -- in
Pressure 30.01 in
Visibility 15.0 miles
Clouds Mostly Cloudy 3800 ft
Dew Point 46 °F
Humidity 65%
Rainfall 0.10 in
Snow Depth Not available.
6:13 AM 8:14 PM
Waxing Crescent, 6% visible
METAR CYSN 281400Z 22016G22KT 15SM BKN038 13/06 A3001 RMK SC7 SLP163
Pressure 30.01 in
Visibility 15.0 miles
Clouds Mostly Cloudy 3800 ft
Dew Point 46 °F
Humidity 65%
Rainfall 0.10 in
Snow Depth Not available.
6:13 AM 8:14 PM
Waxing Crescent, 6% visible
METAR CYSN 281400Z 22016G22KT 15SM BKN038 13/06 A3001 RMK SC7 SLP163

Get Severe Weather Alerts

Thanks for signing up!

Be on the lookout for a verification email in your inbox.

You'll start receiving the daily forecast at 8 AM.

×

10-Day Weather Forecast

Almanac

Astronomy

Apr. 28, 2017 Rise Set
Actual Time
Civil Twilight
Nautical Twilight
Astronomical Twilight
Moon
Length of Visible Light
Length of Day
Tomorrow will be .
, % of the Moon is Illuminated

Today's Extremes

Country Highs Country Lows

Community

WunderPhotos

WunderBlog® & News

Nearby

Air Quality

  Air Quality AQ Index Pollutant
Not available.

Snow Depth

Station Depth Elevation

Earthquake Activity

City Distance Mag. Time & Date
Minimum magnitude displayed is 2.5.

Coastal Water Temperatures

Place Temperature

Stations

Nearby Weather Stations

Station Location Temp. Windchill Dew Point Humidity Wind Precip. Elev Updated Type
                   

Watches & Warnings

There are currently no watches in effect.